createdAt,value
2022-08-04T00:00:22.530Z,23.52
2022-08-04T00:03:31.868Z,23.53
2022-08-04T00:06:52.691Z,23.58
2022-08-04T00:10:01.277Z,23.59
2022-08-04T00:13:07.531Z,23.60
2022-08-04T00:16:13.217Z,23.64
2022-08-04T00:19:23.600Z,23.72
2022-08-04T00:22:30.459Z,23.74
2022-08-04T00:25:34.896Z,23.79
2022-08-04T00:28:39.193Z,23.75
2022-08-04T00:31:56.055Z,23.69
2022-08-04T00:35:02.780Z,23.66
2022-08-04T00:38:08.654Z,23.64
2022-08-04T00:41:56.784Z,23.62
2022-08-04T00:45:25.748Z,23.58
2022-08-04T00:48:38.466Z,23.57
2022-08-04T00:52:31.917Z,23.55
2022-08-04T00:55:49.988Z,23.52
2022-08-04T00:59:10.430Z,23.50
2022-08-04T01:02:51.602Z,23.48
2022-08-04T01:06:09.416Z,23.48
2022-08-04T01:09:38.522Z,23.52
2022-08-04T01:13:03.180Z,23.52
2022-08-04T01:16:16.958Z,23.48
2022-08-04T01:19:42.243Z,23.47
2022-08-04T01:23:22.064Z,23.47
2022-08-04T01:27:03.873Z,23.44
2022-08-04T01:30:08.498Z,23.43
2022-08-04T01:33:14.721Z,23.41
2022-08-04T01:36:23.275Z,23.39
2022-08-04T01:39:43.018Z,23.35
2022-08-04T01:42:52.141Z,23.28
2022-08-04T01:46:02.221Z,23.26
2022-08-04T01:49:07.447Z,23.25
2022-08-04T01:52:11.955Z,23.21
2022-08-04T01:55:18.093Z,23.18
2022-08-04T01:58:24.110Z,23.19
2022-08-04T02:01:28.637Z,23.16
2022-08-04T02:04:33.164Z,23.15
2022-08-04T02:07:39.819Z,23.13
2022-08-04T02:11:20.397Z,23.09
2022-08-04T02:14:41.249Z,23.06
2022-08-04T02:18:04.715Z,23.00
2022-08-04T02:21:08.815Z,22.95
2022-08-04T02:24:16.178Z,22.90
2022-08-04T02:27:28.189Z,22.88
2022-08-04T02:31:17.162Z,22.83
2022-08-04T02:34:34.181Z,22.83
2022-08-04T02:37:39.559Z,22.84
2022-08-04T02:40:45.083Z,22.87
2022-08-04T02:43:52.809Z,22.88
2022-08-04T02:46:57.241Z,22.87
2022-08-04T02:50:02.291Z,22.86
2022-08-04T02:53:10.491Z,22.85
2022-08-04T02:56:18.835Z,22.83
2022-08-04T02:59:27.411Z,22.80
2022-08-04T03:03:18.065Z,22.80
2022-08-04T03:06:43.571Z,22.79
2022-08-04T03:10:15.550Z,22.77
2022-08-04T03:13:28.897Z,22.72
2022-08-04T03:16:52.871Z,22.69
2022-08-04T03:20:33.858Z,22.66
2022-08-04T03:23:58.900Z,22.61
2022-08-04T03:27:25.118Z,22.57
2022-08-04T03:30:51.607Z,22.52
2022-08-04T03:34:23.849Z,22.49
2022-08-04T03:38:11.985Z,22.47
2022-08-04T03:41:55.267Z,22.47
2022-08-04T03:45:32.338Z,22.46
2022-08-04T03:48:45.381Z,22.37
2022-08-04T03:52:43.611Z,22.33
2022-08-04T03:56:25.677Z,22.31
2022-08-04T04:00:04.071Z,22.30
2022-08-04T04:03:45.538Z,22.30
2022-08-04T04:07:07.428Z,22.25
2022-08-04T04:10:44.855Z,22.22
2022-08-04T04:14:07.781Z,22.25
2022-08-04T04:17:26.198Z,22.24
2022-08-04T04:20:51.150Z,22.25
2022-08-04T04:24:12.015Z,22.26
2022-08-04T04:27:29.114Z,22.26
2022-08-04T04:30:41.110Z,22.29
2022-08-04T04:34:22.737Z,22.26
2022-08-04T04:37:48.870Z,22.28
2022-08-04T04:41:05.627Z,22.30
2022-08-04T04:44:44.839Z,22.30
2022-08-04T04:48:10.619Z,22.30
2022-08-04T04:51:33.699Z,22.34
2022-08-04T04:54:56.151Z,22.35
2022-08-04T04:58:01.727Z,22.35
2022-08-04T05:01:14.888Z,22.34
2022-08-04T05:04:35.895Z,22.35
2022-08-04T05:08:43.225Z,22.39
2022-08-04T05:13:05.034Z,22.54
2022-08-04T05:15:43.325Z,22.56
2022-08-04T05:18:55.858Z,22.67
2022-08-04T05:22:11.194Z,22.72
2022-08-04T05:25:34.737Z,22.76
2022-08-04T05:28:43.316Z,22.86
2022-08-04T05:31:51.195Z,22.97
2022-08-04T05:35:05.182Z,23.03
2022-08-04T05:38:12.103Z,23.11
2022-08-04T05:41:17.028Z,23.16
2022-08-04T05:44:23.683Z,23.23
2022-08-04T05:47:28.440Z,23.27
2022-08-04T05:50:33.705Z,23.31
2022-08-04T05:53:38.808Z,23.36
2022-08-04T05:56:43.490Z,23.49
2022-08-04T05:59:49.575Z,23.59
2022-08-04T06:02:55.844Z,23.67
2022-08-04T06:06:00.815Z,23.72
2022-08-04T06:09:04.872Z,23.78
2022-08-04T06:12:18.092Z,23.82
2022-08-04T06:15:25.326Z,23.92
2022-08-04T06:18:34.008Z,23.98
2022-08-04T06:21:58.857Z,24.05
2022-08-04T06:25:06.598Z,24.12
2022-08-04T06:28:13.735Z,24.22
2022-08-04T06:32:27.915Z,24.31
2022-08-04T06:34:59.706Z,24.40
2022-08-04T06:38:04.076Z,24.54
2022-08-04T06:41:09.383Z,24.70
2022-08-04T06:44:15.178Z,24.86
2022-08-04T06:47:21.253Z,24.94
2022-08-04T06:51:31.439Z,25.08
2022-08-04T06:53:49.561Z,25.24
2022-08-04T06:56:56.833Z,25.38
2022-08-04T07:00:11.431Z,25.53
2022-08-04T07:03:17.955Z,25.65
2022-08-04T07:06:22.965Z,25.81
2022-08-04T07:09:26.915Z,25.99
2022-08-04T07:12:32.771Z,26.19
2022-08-04T07:15:41.211Z,26.44
2022-08-04T07:18:45.415Z,26.68
2022-08-04T07:22:18.079Z,27.01
2022-08-04T07:25:15.507Z,27.46
2022-08-04T07:28:21.102Z,27.74
2022-08-04T07:31:35.165Z,28.03
2022-08-04T07:34:41.808Z,28.01
2022-08-04T07:37:46.764Z,28.03
2022-08-04T07:40:50.889Z,28.07
2022-08-04T07:43:55.507Z,28.16
2022-08-04T07:47:01.061Z,28.31
2022-08-04T07:50:06.479Z,29.03
2022-08-04T07:53:55.075Z,29.81
2022-08-04T07:56:39.892Z,30.52
2022-08-04T07:59:48.249Z,30.76
2022-08-04T08:02:55.274Z,31.53
2022-08-04T08:06:31.264Z,32.66
2022-08-04T08:09:24.050Z,34.26
2022-08-04T08:12:37.143Z,35.54
2022-08-04T08:15:53.582Z,35.29
2022-08-04T08:18:57.288Z,34.60
2022-08-04T08:22:01.916Z,34.20
2022-08-04T08:25:07.265Z,34.28
2022-08-04T08:28:11.357Z,34.82
2022-08-04T08:31:15.323Z,35.10
2022-08-04T08:34:28.002Z,35.76
2022-08-04T08:37:42.236Z,35.88
2022-08-04T08:41:26.092Z,35.56
2022-08-04T08:44:44.966Z,35.59
2022-08-04T08:48:06.957Z,36.41
2022-08-04T08:51:39.520Z,35.86
2022-08-04T08:55:19.787Z,35.78
2022-08-04T08:58:42.599Z,35.99
2022-08-04T09:01:58.122Z,35.57
2022-08-04T09:05:30.496Z,35.26
2022-08-04T09:08:37.559Z,34.79
2022-08-04T09:11:55.998Z,34.85
2022-08-04T09:15:13.771Z,34.66
2022-08-04T09:18:35.098Z,34.35
2022-08-04T09:21:53.500Z,34.14
2022-08-04T09:25:04.695Z,34.13
2022-08-04T09:28:43.611Z,34.10
2022-08-04T09:32:08.736Z,34.34
2022-08-04T09:35:42.075Z,34.25
2022-08-04T09:39:01.312Z,34.24
2022-08-04T09:42:29.256Z,34.13
2022-08-04T09:45:43.090Z,34.20
2022-08-04T09:48:56.836Z,34.17
2022-08-04T09:52:23.774Z,34.24
2022-08-04T09:55:53.470Z,34.16
2022-08-04T09:59:25.772Z,34.19
2022-08-04T10:02:38.541Z,34.31
2022-08-04T10:14:51.383Z,33.81
2022-08-04T10:18:28.766Z,33.78
2022-08-04T10:21:59.959Z,33.73
2022-08-04T10:25:38.993Z,33.82
2022-08-04T10:29:17.257Z,33.86
2022-08-04T10:32:45.336Z,33.98
2022-08-04T10:35:53.937Z,33.97
2022-08-04T10:39:42.336Z,34.11
2022-08-04T10:42:54.384Z,34.03
2022-08-04T10:46:14.885Z,33.96
2022-08-04T10:49:24.154Z,33.94
2022-08-04T10:52:55.132Z,34.00
2022-08-04T10:56:08.998Z,33.94
2022-08-04T10:59:24.695Z,34.11
2022-08-04T11:02:51.226Z,34.15
2022-08-04T11:05:56.456Z,34.24
2022-08-04T11:09:03.250Z,34.17
2022-08-04T11:12:17.622Z,34.19
2022-08-04T11:15:25.768Z,34.22
2022-08-04T11:18:44.160Z,34.28
2022-08-04T11:21:57.676Z,34.25
2022-08-04T11:25:11.942Z,34.27
2022-08-04T11:28:23.288Z,34.28
2022-08-04T11:31:32.096Z,34.34
2022-08-04T11:34:42.604Z,34.32
2022-08-04T11:38:24.154Z,34.40
2022-08-04T11:41:48.208Z,34.54
2022-08-04T11:45:02.265Z,34.64
2022-08-04T11:48:26.830Z,34.76
2022-08-04T11:51:32.936Z,34.73
2022-08-04T11:54:38.441Z,34.72
2022-08-04T11:57:44.363Z,34.85
2022-08-04T12:01:33.342Z,35.00
2022-08-04T12:04:57.259Z,34.93
2022-08-04T12:08:13.765Z,34.91
2022-08-04T12:11:34.832Z,34.85
2022-08-04T12:14:57.240Z,34.90
2022-08-04T12:18:10.660Z,34.85
2022-08-04T12:21:23.457Z,34.98
2022-08-04T12:24:38.932Z,35.09
2022-08-04T12:27:59.942Z,35.05
2022-08-04T12:31:20.588Z,35.06
2022-08-04T12:34:34.118Z,34.79
2022-08-04T12:37:43.773Z,34.71
2022-08-04T12:40:53.425Z,34.78
2022-08-04T12:44:06.578Z,34.80
2022-08-04T12:47:27.236Z,34.81
2022-08-04T12:50:34.324Z,34.85
2022-08-04T12:53:50.902Z,34.84
2022-08-04T12:57:01.317Z,34.78
2022-08-04T13:00:07.640Z,35.00
2022-08-04T13:03:17.369Z,35.03
2022-08-04T13:06:28.650Z,34.71
2022-08-04T13:09:34.426Z,34.54
2022-08-04T13:12:40.262Z,34.33
2022-08-04T13:15:56.450Z,34.24
2022-08-04T13:19:05.480Z,34.42
2022-08-04T13:22:09.633Z,34.63
2022-08-04T13:26:40.454Z,34.90
2022-08-04T13:28:45.044Z,34.76
2022-08-04T13:31:52.724Z,34.72
2022-08-04T13:35:00.552Z,34.81
2022-08-04T13:38:10.816Z,34.89
2022-08-04T13:41:17.830Z,34.91
2022-08-04T13:44:34.026Z,34.97
2022-08-04T13:47:40.373Z,35.00
2022-08-04T13:50:47.960Z,34.92
2022-08-04T13:54:00.397Z,35.00
2022-08-04T13:57:11.260Z,34.99
2022-08-04T14:00:17.012Z,35.01
2022-08-04T14:03:34.551Z,35.02
2022-08-04T14:07:05.400Z,34.73
2022-08-04T14:10:20.979Z,34.52
2022-08-04T14:13:41.413Z,34.52
2022-08-04T14:17:20.306Z,34.53
2022-08-04T14:20:24.754Z,34.64
2022-08-04T14:23:33.259Z,34.71
2022-08-04T14:26:37.977Z,34.68
2022-08-04T14:29:42.326Z,34.59
2022-08-04T14:34:03.446Z,34.40
2022-08-04T14:37:13.477Z,34.40
2022-08-04T14:40:29.989Z,34.50
2022-08-04T14:43:31.703Z,34.60
2022-08-04T14:46:55.931Z,34.68
2022-08-04T14:50:00.229Z,34.68
2022-08-04T14:53:10.902Z,34.66
2022-08-04T14:56:37.358Z,34.65
2022-08-04T15:00:01.712Z,34.63
2022-08-04T15:03:09.413Z,34.53
2022-08-04T15:06:17.234Z,34.35
2022-08-04T15:09:24.368Z,34.22
2022-08-04T15:12:28.374Z,34.18
2022-08-04T15:15:37.364Z,34.03
2022-08-04T15:18:42.080Z,33.89
2022-08-04T15:21:46.337Z,33.82
2022-08-04T15:24:54.835Z,33.90
2022-08-04T15:28:01.134Z,34.01
2022-08-04T15:31:10.295Z,33.97
2022-08-04T15:35:17.284Z,33.91
2022-08-04T15:38:31.213Z,33.88
2022-08-04T15:41:55.107Z,33.88
2022-08-04T15:46:36.981Z,33.89
2022-08-04T15:48:51.971Z,33.83
2022-08-04T15:52:11.979Z,33.70
2022-08-04T15:55:43.169Z,33.60
2022-08-04T15:58:53.065Z,33.49
2022-08-04T16:02:29.030Z,33.37
2022-08-04T16:05:36.632Z,33.34
2022-08-04T16:08:57.797Z,33.36
2022-08-04T16:12:02.860Z,33.36
2022-08-04T16:15:39.301Z,33.32
2022-08-04T16:18:44.514Z,33.27
2022-08-04T16:21:54.131Z,33.22
2022-08-04T16:24:58.206Z,33.16
2022-08-04T16:28:02.425Z,33.12
2022-08-04T16:31:09.237Z,33.07
2022-08-04T16:34:48.594Z,33.02
2022-08-04T16:37:38.943Z,32.99
2022-08-04T16:40:46.198Z,33.00
2022-08-04T16:43:50.130Z,32.96
2022-08-04T16:47:01.398Z,32.88
2022-08-04T16:50:21.314Z,32.85
2022-08-04T16:54:04.039Z,32.79
2022-08-04T16:56:51.965Z,32.74
2022-08-04T16:59:55.924Z,32.69
2022-08-04T17:03:09.602Z,32.66
2022-08-04T17:06:14.843Z,32.63
2022-08-04T17:09:19.880Z,32.68
2022-08-04T17:12:29.039Z,32.62
2022-08-04T17:15:33.190Z,32.59
2022-08-04T17:18:42.857Z,32.56
2022-08-04T17:21:47.070Z,32.49
2022-08-04T17:24:51.338Z,32.45
2022-08-04T17:31:30.383Z,32.24
2022-08-04T17:34:34.851Z,32.22
2022-08-04T17:41:19.036Z,32.10
2022-08-04T17:44:37.105Z,32.04
2022-08-04T17:47:52.428Z,31.99
2022-08-04T17:51:16.645Z,31.94
2022-08-04T17:54:36.752Z,31.88
2022-08-04T17:57:42.680Z,31.79
2022-08-04T18:05:05.694Z,31.63
2022-08-04T18:08:40.814Z,31.55
2022-08-04T18:11:42.193Z,31.44
2022-08-04T18:14:49.046Z,31.32
2022-08-04T18:18:20.534Z,31.20
2022-08-04T18:21:17.645Z,31.07
2022-08-04T18:24:21.839Z,30.95
2022-08-04T18:27:54.223Z,30.84
2022-08-04T18:30:58.094Z,30.75
2022-08-04T18:34:02.492Z,30.69
2022-08-04T18:38:03.156Z,30.66
2022-08-04T18:40:39.193Z,30.59
2022-08-04T18:43:57.513Z,30.55
2022-08-04T18:47:19.241Z,30.47
2022-08-04T18:51:01.721Z,30.40
2022-08-04T18:57:32.437Z,30.27
2022-08-04T19:00:47.736Z,30.16
2022-08-04T19:03:57.623Z,30.10
2022-08-04T19:07:23.570Z,30.00
2022-08-04T19:10:27.181Z,29.90
2022-08-04T19:13:34.641Z,29.82
2022-08-04T19:16:40.793Z,29.77
2022-08-04T19:19:47.794Z,29.74
2022-08-04T19:24:26.302Z,29.67
2022-08-04T19:26:28.426Z,29.59
2022-08-04T19:29:38.020Z,29.50
2022-08-04T19:32:46.104Z,29.45
2022-08-04T19:35:52.956Z,29.39
2022-08-04T19:38:58.152Z,29.33
2022-08-04T19:42:04.510Z,29.25
2022-08-04T19:48:35.113Z,29.10
2022-08-04T19:51:39.697Z,29.04
2022-08-04T19:54:49.427Z,28.98
2022-08-04T19:57:53.850Z,28.94
2022-08-04T20:00:58.164Z,28.87
2022-08-04T20:07:27.413Z,28.79
2022-08-04T20:10:32.946Z,28.73
2022-08-04T20:13:38.795Z,28.68
2022-08-04T20:16:42.878Z,28.64
2022-08-04T20:19:51.458Z,28.62
2022-08-04T20:22:55.864Z,28.60
2022-08-04T20:26:01.459Z,28.59
2022-08-04T20:29:05.381Z,28.59
2022-08-04T20:32:11.940Z,28.62
2022-08-04T20:35:19.637Z,28.64
2022-08-04T20:38:33.398Z,28.67
2022-08-04T20:41:38.915Z,28.76
2022-08-04T20:44:49.242Z,28.84
2022-08-04T20:51:19.933Z,29.10
2022-08-04T20:54:39.595Z,29.15
2022-08-04T20:57:49.402Z,29.23
2022-08-04T21:00:55.992Z,29.41
2022-08-04T21:04:28.187Z,29.46
2022-08-04T21:07:36.464Z,29.49
2022-08-04T21:10:48.670Z,29.61
2022-08-04T21:13:53.169Z,29.59
2022-08-04T21:17:00.647Z,29.58
2022-08-04T21:20:05.362Z,29.58
2022-08-04T21:23:09.679Z,29.59
2022-08-04T21:26:21.873Z,29.56
2022-08-04T21:29:35.439Z,29.58
2022-08-04T21:32:40.010Z,29.51
2022-08-04T21:35:44.198Z,29.46
2022-08-04T21:38:51.162Z,29.39
2022-08-04T21:42:42.297Z,29.33
2022-08-04T21:45:20.408Z,29.34
2022-08-04T21:48:27.575Z,29.24
2022-08-04T21:51:57.978Z,29.19
2022-08-04T21:54:59.469Z,29.16
2022-08-04T21:58:05.346Z,29.10
2022-08-04T22:01:13.286Z,29.05
2022-08-04T22:04:17.756Z,29.10
2022-08-04T22:10:45.420Z,29.01
2022-08-04T22:13:52.405Z,28.96
2022-08-04T22:17:14.356Z,28.93
2022-08-04T22:20:27.681Z,28.79
2022-08-04T22:23:45.201Z,28.67
2022-08-04T22:26:51.019Z,28.63
2022-08-04T22:29:54.761Z,28.49
2022-08-04T22:32:59.026Z,28.49
2022-08-04T22:36:08.130Z,28.40
2022-08-04T22:39:12.106Z,28.36
2022-08-04T22:42:17.542Z,28.27
2022-08-04T22:45:28.838Z,28.13
2022-08-04T22:48:46.766Z,28.03
2022-08-04T22:51:51.050Z,27.95
2022-08-04T22:54:55.636Z,27.89
2022-08-04T22:58:04.726Z,27.78
2022-08-04T23:01:10.634Z,27.72
2022-08-04T23:04:14.892Z,27.64
2022-08-04T23:07:18.783Z,27.60
2022-08-04T23:10:28.117Z,27.50
2022-08-04T23:13:33.410Z,27.42
2022-08-04T23:16:40.630Z,27.41
2022-08-04T23:19:46.061Z,27.36
2022-08-04T23:23:14.783Z,27.35
2022-08-04T23:26:19.353Z,27.33
2022-08-04T23:29:52.664Z,27.24
2022-08-04T23:32:55.434Z,27.20
2022-08-04T23:35:59.732Z,27.10
2022-08-04T23:39:05.844Z,26.98
2022-08-04T23:42:10.240Z,26.84
2022-08-04T23:46:05.151Z,26.73
2022-08-04T23:48:45.501Z,26.74
2022-08-04T23:51:49.813Z,26.70
2022-08-04T23:54:53.670Z,26.63
2022-08-04T23:58:05.980Z,26.50
